Terminal Aerodrome Forecast
Issued by NWS

Current Version | Previous Version | Text Only | Print | Product List | Glossary Off
Versions: 1 2 3 4 5 6 7 8 9 10 11 12 13 14 15 16 17 18 19 20 21 22 23 24 25 26 27 28 29 30

000
FTUS41 KILN 300900 AAA
TAFLUK
TAF AMD
KLUK 300904Z 3009/0106 18003KT 6SM BR SCT028 SCT090
     FM301400 23007KT P6SM BKN028
     FM301600 23010KT P6SM VCSH BKN040
     FM301800 24012G20KT P6SM VCTS BKN040CB
      TEMPO 3018/3022 3SM TSRA BR OVC025CB
     FM010000 25006KT P6SM SCT050 SCT100=

USA.gov is the U.S. government's official web portal to all federal, state and local government web resources and services.